sensor_id;sensor_type;location;lat;lon;timestamp;pressure;altitude;pressure_sealevel;temperature;humidity
23261;BME280;11799;47.740;-3.390;2023-12-29T00:01:29;101472.63;;;11.36;100.00
23261;BME280;11799;47.740;-3.390;2023-12-29T00:03:55;101474.41;;;11.36;100.00
23261;BME280;11799;47.740;-3.390;2023-12-29T00:06:21;101464.38;;;11.28;100.00
23261;BME280;11799;47.740;-3.390;2023-12-29T00:08:46;101467.53;;;11.33;100.00
23261;BME280;11799;47.740;-3.390;2023-12-29T00:11:19;101473.56;;;11.35;100.00
23261;BME280;11799;47.740;-3.390;2023-12-29T00:13:45;101467.44;;;11.35;100.00
23261;BME280;11799;47.740;-3.390;2023-12-29T00:16:10;101460.34;;;11.35;100.00
23261;BME280;11799;47.740;-3.390;2023-12-29T00:18:39;101467.44;;;11.35;100.00
23261;BME280;11799;47.740;-3.390;2023-12-29T00:21:05;101464.78;;;11.35;100.00
23261;BME280;11799;47.740;-3.390;2023-12-29T00:23:31;101471.75;;;11.36;100.00
23261;BME280;11799;47.740;-3.390;2023-12-29T00:25:56;101476.00;;;11.38;100.00
23261;BME280;11799;47.740;-3.390;2023-12-29T00:28:22;101483.94;;;11.38;100.00
23261;BME280;11799;47.740;-3.390;2023-12-29T00:30:48;101463.84;;;11.36;100.00
23261;BME280;11799;47.740;-3.390;2023-12-29T00:33:13;101459.09;;;11.28;100.00
23261;BME280;11799;47.740;-3.390;2023-12-29T00:35:39;101462.25;;;11.20;100.00
23261;BME280;11799;47.740;-3.390;2023-12-29T00:38:05;101461.63;;;11.17;100.00
23261;BME280;11799;47.740;-3.390;2023-12-29T00:40:32;101464.28;;;11.17;100.00
23261;BME280;11799;47.740;-3.390;2023-12-29T00:43:02;101465.00;;;11.19;100.00
23261;BME280;11799;47.740;-3.390;2023-12-29T00:45:27;101457.28;;;11.16;100.00
23261;BME280;11799;47.740;-3.390;2023-12-29T00:47:59;101465.00;;;11.19;100.00
23261;BME280;11799;47.740;-3.390;2023-12-29T00:50:25;101450.44;;;11.13;100.00
23261;BME280;11799;47.740;-3.390;2023-12-29T00:52:52;101460.56;;;11.19;100.00
23261;BME280;11799;47.740;-3.390;2023-12-29T00:55:17;101465.00;;;11.19;100.00
23261;BME280;11799;47.740;-3.390;2023-12-29T00:57:43;101465.13;;;11.17;100.00
23261;BME280;11799;47.740;-3.390;2023-12-29T01:00:11;101451.16;;;11.15;100.00
23261;BME280;11799;47.740;-3.390;2023-12-29T01:02:37;101452.00;;;11.16;100.00
23261;BME280;11799;47.740;-3.390;2023-12-29T01:05:03;101457.09;;;11.19;100.00
23261;BME280;11799;47.740;-3.390;2023-12-29T01:07:28;101461.41;;;11.20;100.00
23261;BME280;11799;47.740;-3.390;2023-12-29T01:09:55;101452.63;;;11.19;100.00
23261;BME280;11799;47.740;-3.390;2023-12-29T01:12:21;101443.97;;;11.17;100.00
23261;BME280;11799;47.740;-3.390;2023-12-29T01:14:46;101444.94;;;11.16;100.00
23261;BME280;11799;47.740;-3.390;2023-12-29T01:17:12;101451.16;;;11.15;100.00
23261;BME280;11799;47.740;-3.390;2023-12-29T01:19:37;101439.13;;;11.11;100.00
23261;BME280;11799;47.740;-3.390;2023-12-29T01:22:03;101445.66;;;11.18;100.00
23261;BME280;11799;47.740;-3.390;2023-12-29T01:24:28;101447.66;;;11.15;100.00
23261;BME280;11799;47.740;-3.390;2023-12-29T01:26:54;101450.31;;;11.15;100.00
23261;BME280;11799;47.740;-3.390;2023-12-29T01:29:19;101445.03;;;11.15;100.00
23261;BME280;11799;47.740;-3.390;2023-12-29T01:31:45;101437.09;;;11.15;100.00
23261;BME280;11799;47.740;-3.390;2023-12-29T01:34:11;101444.94;;;11.16;100.00
23261;BME280;11799;47.740;-3.390;2023-12-29T01:36:37;101440.38;;;11.18;100.00
23261;BME280;11799;47.740;-3.390;2023-12-29T01:39:02;101435.94;;;11.19;100.00
23261;BME280;11799;47.740;-3.390;2023-12-29T01:41:29;101433.28;;;11.19;100.00
23261;BME280;11799;47.740;-3.390;2023-12-29T01:46:29;101430.44;;;11.22;100.00
23261;BME280;11799;47.740;-3.390;2023-12-29T01:48:56;101426.94;;;11.21;100.00
23261;BME280;11799;47.740;-3.390;2023-12-29T01:51:24;101411.94;;;11.22;100.00
23261;BME280;11799;47.740;-3.390;2023-12-29T01:53:52;101414.78;;;11.19;100.00
23261;BME280;11799;47.740;-3.390;2023-12-29T01:56:18;101419.97;;;11.20;100.00
23261;BME280;11799;47.740;-3.390;2023-12-29T01:58:45;101418.16;;;11.21;100.00
23261;BME280;11799;47.740;-3.390;2023-12-29T02:01:11;101419.00;;;11.21;100.00
23261;BME280;11799;47.740;-3.390;2023-12-29T02:03:38;101416.38;;;11.21;100.00
23261;BME280;11799;47.740;-3.390;2023-12-29T02:06:04;101397.56;;;11.13;100.00
23261;BME280;11799;47.740;-3.390;2023-12-29T02:08:31;101410.44;;;11.18;100.00
23261;BME280;11799;47.740;-3.390;2023-12-29T02:10:57;101402.72;;;11.15;100.00
23261;BME280;11799;47.740;-3.390;2023-12-29T02:13:23;101408.75;;;11.17;100.00
23261;BME280;11799;47.740;-3.390;2023-12-29T02:15:51;101416.59;;;11.18;100.00
23261;BME280;11799;47.740;-3.390;2023-12-29T02:18:18;101406.13;;;11.17;100.00
23261;BME280;11799;47.740;-3.390;2023-12-29T02:20:45;101407.06;;;11.16;100.00
23261;BME280;11799;47.740;-3.390;2023-12-29T02:23:11;101403.38;;;11.18;100.00
23261;BME280;11799;47.740;-3.390;2023-12-29T02:25:37;101400.72;;;11.18;100.00
23261;BME280;11799;47.740;-3.390;2023-12-29T02:28:24;101409.59;;;11.17;100.00
23261;BME280;11799;47.740;-3.390;2023-12-29T02:31:01;101398.06;;;11.18;100.00
23261;BME280;11799;47.740;-3.390;2023-12-29T02:33:32;101392.28;;;11.13;100.00
23261;BME280;11799;47.740;-3.390;2023-12-29T02:36:01;101402.41;;;11.19;100.00
23261;BME280;11799;47.740;-3.390;2023-12-29T02:38:29;101396.91;;;11.22;100.00
23261;BME280;11799;47.740;-3.390;2023-12-29T02:40:56;101395.72;;;11.27;100.00
23261;BME280;11799;47.740;-3.390;2023-12-29T02:43:22;101389.38;;;11.29;100.00
23261;BME280;11799;47.740;-3.390;2023-12-29T02:45:47;101394.56;;;11.31;100.00
23261;BME280;11799;47.740;-3.390;2023-12-29T02:48:13;101391.91;;;11.31;100.00
23261;BME280;11799;47.740;-3.390;2023-12-29T02:50:38;101407.56;;;11.34;100.00
23261;BME280;11799;47.740;-3.390;2023-12-29T02:53:05;101399.53;;;11.35;100.00
23261;BME280;11799;47.740;-3.390;2023-12-29T02:55:31;101396.78;;;11.37;100.00
23261;BME280;11799;47.740;-3.390;2023-12-29T02:57:56;101394.00;;;11.38;100.00
23261;BME280;11799;47.740;-3.390;2023-12-29T03:00:22;101395.69;;;11.39;100.00
23261;BME280;11799;47.740;-3.390;2023-12-29T03:02:48;101396.44;;;11.41;100.00
23261;BME280;11799;47.740;-3.390;2023-12-29T03:05:14;101380.28;;;11.33;100.00
23261;BME280;11799;47.740;-3.390;2023-12-29T03:07:39;101398.88;;;11.44;100.00
23261;BME280;11799;47.740;-3.390;2023-12-29T03:10:07;101386.81;;;11.40;100.00
23261;BME280;11799;47.740;-3.390;2023-12-29T03:12:32;101398.53;;;11.49;100.00
23261;BME280;11799;47.740;-3.390;2023-12-29T03:14:59;101399.25;;;11.51;100.00
23261;BME280;11799;47.740;-3.390;2023-12-29T03:17:25;101398.31;;;11.52;100.00
23261;BME280;11799;47.740;-3.390;2023-12-29T03:19:52;101391.97;;;11.54;100.00
23261;BME280;11799;47.740;-3.390;2023-12-29T03:22:17;101394.59;;;11.54;100.00
23261;BME280;11799;47.740;-3.390;2023-12-29T03:24:43;101383.88;;;11.56;100.00
23261;BME280;11799;47.740;-3.390;2023-12-29T03:27:09;101387.38;;;11.56;100.00
23261;BME280;11799;47.740;-3.390;2023-12-29T03:29:35;101381.81;;;11.48;100.00
23261;BME280;11799;47.740;-3.390;2023-12-29T03:32:01;101386.41;;;11.57;100.00
23261;BME280;11799;47.740;-3.390;2023-12-29T03:34:27;101376.56;;;11.59;100.00
23261;BME280;11799;47.740;-3.390;2023-12-29T03:36:53;101385.47;;;11.58;100.00
23261;BME280;11799;47.740;-3.390;2023-12-29T03:39:19;101383.03;;;11.55;100.00
23261;BME280;11799;47.740;-3.390;2023-12-29T03:41:44;101388.22;;;11.57;100.00
23261;BME280;11799;47.740;-3.390;2023-12-29T03:44:10;101381.75;;;11.61;100.00
23261;BME280;11799;47.740;-3.390;2023-12-29T03:46:35;101378.97;;;11.63;100.00
23261;BME280;11799;47.740;-3.390;2023-12-29T03:49:01;101367.31;;;11.54;100.00
23261;BME280;11799;47.740;-3.390;2023-12-29T03:51:27;101381.84;;;11.59;100.00
23261;BME280;11799;47.740;-3.390;2023-12-29T03:53:52;101379.09;;;11.61;100.00
23261;BME280;11799;47.740;-3.390;2023-12-29T03:56:18;101377.28;;;11.62;100.00
23261;BME280;11799;47.740;-3.390;2023-12-29T03:58:47;101374.03;;;11.58;100.00
23261;BME280;11799;47.740;-3.390;2023-12-29T04:01:15;101382.22;;;11.55;100.00
23261;BME280;11799;47.740;-3.390;2023-12-29T04:03:41;101380.38;;;11.55;100.00
23261;BME280;11799;47.740;-3.390;2023-12-29T04:06:07;101371.50;;;11.56;100.00
23261;BME280;11799;47.740;-3.390;2023-12-29T04:08:34;101369.69;;;11.57;100.00
23261;BME280;11799;47.740;-3.390;2023-12-29T04:11:00;101374.88;;;11.58;100.00
23261;BME280;11799;47.740;-3.390;2023-12-29T04:13:26;101365.38;;;11.56;100.00
23261;BME280;11799;47.740;-3.390;2023-12-29T04:15:51;101373.81;;;11.61;100.00
23261;BME280;11799;47.740;-3.390;2023-12-29T04:18:18;101366.72;;;11.62;100.00
23261;BME280;11799;47.740;-3.390;2023-12-29T04:20:44;101367.56;;;11.62;100.00
23261;BME280;11799;47.740;-3.390;2023-12-29T04:23:11;101369.13;;;11.65;100.00
23261;BME280;11799;47.740;-3.390;2023-12-29T04:25:37;101356.75;;;11.65;100.00
23261;BME280;11799;47.740;-3.390;2023-12-29T04:28:04;101347.13;;;11.64;100.00
23261;BME280;11799;47.740;-3.390;2023-12-29T04:30:30;101354.72;;;11.69;100.00
23261;BME280;11799;47.740;-3.390;2023-12-29T04:32:56;101351.97;;;11.70;100.00
23261;BME280;11799;47.740;-3.390;2023-12-29T04:35:21;101349.66;;;11.66;100.00
23261;BME280;11799;47.740;-3.390;2023-12-29T04:37:47;101360.63;;;11.72;100.00
23261;BME280;11799;47.740;-3.390;2023-12-29T04:40:13;101358.72;;;11.74;100.00
23261;BME280;11799;47.740;-3.390;2023-12-29T04:42:39;101361.47;;;11.73;100.00
23261;BME280;11799;47.740;-3.390;2023-12-29T04:45:05;101349.81;;;11.75;100.00
23261;BME280;11799;47.740;-3.390;2023-12-29T04:47:31;101344.03;;;11.70;100.00
23261;BME280;11799;47.740;-3.390;2023-12-29T04:49:57;101349.09;;;11.73;100.00
23261;BME280;11799;47.740;-3.390;2023-12-29T04:52:22;101343.69;;;11.75;100.00
23261;BME280;11799;47.740;-3.390;2023-12-29T04:54:48;101345.38;;;11.76;100.00
23261;BME280;11799;47.740;-3.390;2023-12-29T04:57:14;101338.28;;;11.76;100.00
23261;BME280;11799;47.740;-3.390;2023-12-29T04:59:40;101339.16;;;11.77;100.00
23261;BME280;11799;47.740;-3.390;2023-12-29T05:02:06;101339.16;;;11.77;100.00
23261;BME280;11799;47.740;-3.390;2023-12-29T05:04:31;101323.59;;;11.72;100.00
23261;BME280;11799;47.740;-3.390;2023-12-29T05:06:57;101327.81;;;11.75;100.00
23261;BME280;11799;47.740;-3.390;2023-12-29T05:09:22;101324.44;;;11.73;100.00
23261;BME280;11799;47.740;-3.390;2023-12-29T05:11:48;101336.81;;;11.72;100.00
23261;BME280;11799;47.740;-3.390;2023-12-29T05:14:14;101329.72;;;11.73;100.00
23261;BME280;11799;47.740;-3.390;2023-12-29T05:16:41;101336.81;;;11.72;100.00
23261;BME280;11799;47.740;-3.390;2023-12-29T05:19:07;101327.88;;;11.62;100.00
23261;BME280;11799;47.740;-3.390;2023-12-29T05:21:32;101331.97;;;11.55;100.00
23261;BME280;11799;47.740;-3.390;2023-12-29T05:23:58;101350.09;;;11.48;100.00
23261;BME280;11799;47.740;-3.390;2023-12-29T05:26:24;101350.41;;;11.44;100.00
23261;BME280;11799;47.740;-3.390;2023-12-29T05:28:50;101355.94;;;11.41;100.00
23261;BME280;11799;47.740;-3.390;2023-12-29T05:31:16;101346.41;;;11.38;100.00
23261;BME280;11799;47.740;-3.390;2023-12-29T05:33:42;101343.78;;;11.38;100.00
23261;BME280;11799;47.740;-3.390;2023-12-29T05:36:09;101350.13;;;11.36;100.00
23261;BME280;11799;47.740;-3.390;2023-12-29T05:38:35;101354.78;;;11.32;100.00
23261;BME280;11799;47.740;-3.390;2023-12-29T05:41:01;101352.38;;;11.29;100.00
23261;BME280;11799;47.740;-3.390;2023-12-29T05:43:28;101354.28;;;11.27;100.00
23261;BME280;11799;47.740;-3.390;2023-12-29T05:45:54;101352.47;;;11.28;100.00
23261;BME280;11799;47.740;-3.390;2023-12-29T05:48:19;101350.06;;;11.24;100.00
23261;BME280;11799;47.740;-3.390;2023-12-29T05:50:45;101349.22;;;11.24;100.00
23261;BME280;11799;47.740;-3.390;2023-12-29T05:53:10;101351.13;;;11.22;100.00
23261;BME280;11799;47.740;-3.390;2023-12-29T05:55:36;101352.06;;;11.21;100.00
23261;BME280;11799;47.740;-3.390;2023-12-29T05:58:01;101349.53;;;11.19;100.00
23261;BME280;11799;47.740;-3.390;2023-12-29T06:00:27;101345.19;;;11.18;100.00
23261;BME280;11799;47.740;-3.390;2023-12-29T06:02:53;101352.91;;;11.21;100.00
23261;BME280;11799;47.740;-3.390;2023-12-29T06:05:18;101351.13;;;11.22;100.00
23261;BME280;11799;47.740;-3.390;2023-12-29T06:07:44;101348.47;;;11.22;100.00
23261;BME280;11799;47.740;-3.390;2023-12-29T06:10:11;101351.97;;;11.22;100.00
23261;BME280;11799;47.740;-3.390;2023-12-29T06:12:36;101344.75;;;11.24;100.00
23261;BME280;11799;47.740;-3.390;2023-12-29T06:15:03;101351.13;;;11.22;100.00
23261;BME280;11799;47.740;-3.390;2023-12-29T06:17:28;101349.31;;;11.22;100.00
23261;BME280;11799;47.740;-3.390;2023-12-29T06:19:54;101343.06;;;11.23;100.00
23261;BME280;11799;47.740;-3.390;2023-12-29T06:22:19;101342.97;;;11.25;100.00
23261;BME280;11799;47.740;-3.390;2023-12-29T06:24:45;101341.91;;;11.28;100.00
23261;BME280;11799;47.740;-3.390;2023-12-29T06:27:11;101336.50;;;11.29;100.00
23261;BME280;11799;47.740;-3.390;2023-12-29T06:29:37;101335.44;;;11.32;100.00
23261;BME280;11799;47.740;-3.390;2023-12-29T06:32:03;101323.91;;;11.33;100.00
23261;BME280;11799;47.740;-3.390;2023-12-29T06:34:29;101333.09;;;11.40;100.00
23261;BME280;11799;47.740;-3.390;2023-12-29T06:36:55;101327.56;;;11.43;100.00
23261;BME280;11799;47.740;-3.390;2023-12-29T06:39:21;101323.97;;;11.44;100.00
23261;BME280;11799;47.740;-3.390;2023-12-29T06:41:46;101333.47;;;11.46;100.00
23261;BME280;11799;47.740;-3.390;2023-12-29T06:44:12;101332.53;;;11.47;100.00
23261;BME280;11799;47.740;-3.390;2023-12-29T06:46:37;101332.63;;;11.46;100.00
23261;BME280;11799;47.740;-3.390;2023-12-29T06:49:04;101324.94;;;11.43;100.00
23261;BME280;11799;47.740;-3.390;2023-12-29T06:51:29;101340.47;;;11.47;100.00
23261;BME280;11799;47.740;-3.390;2023-12-29T06:53:55;101345.53;;;11.50;100.00
23261;BME280;11799;47.740;-3.390;2023-12-29T06:56:20;101340.97;;;11.52;100.00
23261;BME280;11799;47.740;-3.390;2023-12-29T06:58:46;101343.72;;;11.51;100.00
23261;BME280;11799;47.740;-3.390;2023-12-29T07:01:12;101343.84;;;11.49;100.00
23261;BME280;11799;47.740;-3.390;2023-12-29T07:03:38;101354.53;;;11.48;100.00
23261;BME280;11799;47.740;-3.390;2023-12-29T07:06:04;101359.81;;;11.48;100.00
23261;BME280;11799;47.740;-3.390;2023-12-29T07:08:30;101361.41;;;11.50;100.00
23261;BME280;11799;47.740;-3.390;2023-12-29T07:10:55;101348.41;;;11.47;100.00
23261;BME280;11799;47.740;-3.390;2023-12-29T07:13:21;101356.09;;;11.50;100.00
23261;BME280;11799;47.740;-3.390;2023-12-29T07:15:47;101354.41;;;11.49;100.00
23261;BME280;11799;47.740;-3.390;2023-12-29T07:18:13;101357.91;;;11.50;100.00
23261;BME280;11799;47.740;-3.390;2023-12-29T07:20:39;101352.72;;;11.48;100.00
23261;BME280;11799;47.740;-3.390;2023-12-29T07:23:05;101353.69;;;11.47;100.00
23261;BME280;11799;47.740;-3.390;2023-12-29T07:25:30;101352.09;;;11.45;100.00
23261;BME280;11799;47.740;-3.390;2023-12-29T07:27:56;101352.94;;;11.45;100.00
23261;BME280;11799;47.740;-3.390;2023-12-29T07:30:21;101350.41;;;11.44;100.00
23261;BME280;11799;47.740;-3.390;2023-12-29T07:32:47;101353.06;;;11.44;100.00
23261;BME280;11799;47.740;-3.390;2023-12-29T07:35:12;101356.56;;;11.44;100.00
23261;BME280;11799;47.740;-3.390;2023-12-29T07:37:42;101355.72;;;11.44;100.00
23261;BME280;11799;47.740;-3.390;2023-12-29T07:40:10;101356.22;;;11.49;100.00
23261;BME280;11799;47.740;-3.390;2023-12-29T07:42:35;101351.88;;;11.48;100.00
23261;BME280;11799;47.740;-3.390;2023-12-29T07:45:01;101364.03;;;11.50;100.00
23261;BME280;11799;47.740;-3.390;2023-12-29T07:47:26;101352.72;;;11.48;100.00
23261;BME280;11799;47.740;-3.390;2023-12-29T07:49:52;101360.44;;;11.51;100.00
23261;BME280;11799;47.740;-3.390;2023-12-29T07:52:17;101361.75;;;11.57;100.00
23261;BME280;11799;47.740;-3.390;2023-12-29T07:54:43;101359.13;;;11.57;100.00
23261;BME280;11799;47.740;-3.390;2023-12-29T07:57:08;101354.56;;;11.59;100.00
23261;BME280;11799;47.740;-3.390;2023-12-29T07:59:35;101366.72;;;11.62;100.00
23261;BME280;11799;47.740;-3.390;2023-12-29T08:02:00;101344.34;;;11.54;100.00
23261;BME280;11799;47.740;-3.390;2023-12-29T08:04:26;101358.56;;;11.65;100.00
23261;BME280;11799;47.740;-3.390;2023-12-29T08:06:51;101357.47;;;11.67;100.00
23261;BME280;11799;47.740;-3.390;2023-12-29T08:09:17;101358.31;;;11.68;100.00
23261;BME280;11799;47.740;-3.390;2023-12-29T08:11:42;101360.75;;;11.71;100.00
23261;BME280;11799;47.740;-3.390;2023-12-29T08:14:08;101371.22;;;11.72;100.00
23261;BME280;11799;47.740;-3.390;2023-12-29T08:16:39;101361.25;;;11.76;100.00
23261;BME280;11799;47.740;-3.390;2023-12-29T08:19:06;101363.41;;;11.71;100.00
23261;BME280;11799;47.740;-3.390;2023-12-29T08:21:33;101369.97;;;11.78;100.00
23261;BME280;11799;47.740;-3.390;2023-12-29T08:23:59;101357.75;;;11.75;100.00
23261;BME280;11799;47.740;-3.390;2023-12-29T08:26:25;101368.88;;;11.80;100.00
23261;BME280;11799;47.740;-3.390;2023-12-29T08:28:51;101373.22;;;11.81;100.00
23261;BME280;11799;47.740;-3.390;2023-12-29T08:31:18;101371.41;;;11.82;100.00
23261;BME280;11799;47.740;-3.390;2023-12-29T08:33:44;101368.78;;;11.82;100.00
23261;BME280;11799;47.740;-3.390;2023-12-29T08:36:11;101374.78;;;11.84;100.00
23261;BME280;11799;47.740;-3.390;2023-12-29T08:38:37;101363.47;;;11.82;100.00
23261;BME280;11799;47.740;-3.390;2023-12-29T08:41:03;101383.34;;;11.87;100.00
23261;BME280;11799;47.740;-3.390;2023-12-29T08:43:30;101379.75;;;11.88;100.00
23261;BME280;11799;47.740;-3.390;2023-12-29T08:45:56;101387.56;;;11.90;100.00
23261;BME280;11799;47.740;-3.390;2023-12-29T08:48:22;101387.47;;;11.92;100.00
23261;BME280;11799;47.740;-3.390;2023-12-29T08:50:49;101377.00;;;11.90;100.00
23261;BME280;11799;47.740;-3.390;2023-12-29T08:53:14;101395.19;;;11.95;100.00
23261;BME280;11799;47.740;-3.390;2023-12-29T08:55:41;101391.56;;;11.96;100.00
23261;BME280;11799;47.740;-3.390;2023-12-29T08:58:07;101392.53;;;11.95;100.00
23261;BME280;11799;47.740;-3.390;2023-12-29T09:00:33;101403.84;;;11.97;100.00
23261;BME280;11799;47.740;-3.390;2023-12-29T09:02:59;101394.94;;;11.98;100.00
23261;BME280;11799;47.740;-3.390;2023-12-29T09:05:24;101395.69;;;12.00;100.00
23261;BME280;11799;47.740;-3.390;2023-12-29T09:07:50;101392.31;;;11.98;100.00
23261;BME280;11799;47.740;-3.390;2023-12-29T09:10:16;101399.28;;;11.99;100.00
23261;BME280;11799;47.740;-3.390;2023-12-29T09:12:43;101402.31;;;12.05;100.00
23261;BME280;11799;47.740;-3.390;2023-12-29T09:15:09;101401.47;;;12.05;100.00
23261;BME280;11799;47.740;-3.390;2023-12-29T09:17:35;101393.41;;;12.06;100.00
23261;BME280;11799;47.740;-3.390;2023-12-29T09:20:01;101403.91;;;12.08;100.00
23261;BME280;11799;47.740;-3.390;2023-12-29T09:22:26;101395.09;;;12.07;100.00
23261;BME280;11799;47.740;-3.390;2023-12-29T09:24:54;101407.16;;;12.11;100.00
23261;BME280;11799;47.740;-3.390;2023-12-29T09:27:19;101395.59;;;12.12;100.00
23261;BME280;11799;47.740;-3.390;2023-12-29T09:29:45;101404.97;;;12.16;100.00
23261;BME280;11799;47.740;-3.390;2023-12-29T09:32:10;101402.34;;;12.16;100.00
23261;BME280;11799;47.740;-3.390;2023-12-29T09:34:36;101384.75;;;12.15;100.00
23261;BME280;11799;47.740;-3.390;2023-12-29T09:37:01;101406.31;;;12.22;100.00
23261;BME280;11799;47.740;-3.390;2023-12-29T09:39:27;101407.91;;;12.24;100.00
23261;BME280;11799;47.740;-3.390;2023-12-29T09:41:57;101407.16;;;12.22;100.00
23261;BME280;11799;47.740;-3.390;2023-12-29T09:44:23;101408.84;;;12.23;100.00
23261;BME280;11799;47.740;-3.390;2023-12-29T09:46:53;101407.78;;;12.26;100.00
23261;BME280;11799;47.740;-3.390;2023-12-29T09:49:19;101412.13;;;12.27;100.00
23261;BME280;11799;47.740;-3.390;2023-12-29T09:51:45;101413.81;;;12.28;100.00
23261;BME280;11799;47.740;-3.390;2023-12-29T09:54:12;101404.78;;;12.31;100.00
23261;BME280;11799;47.740;-3.390;2023-12-29T09:56:39;101408.91;;;12.35;100.00
23261;BME280;11799;47.740;-3.390;2023-12-29T09:59:05;101407.09;;;12.35;100.00
23261;BME280;11799;47.740;-3.390;2023-12-29T10:01:32;101416.50;;;12.39;100.00
23261;BME280;11799;47.740;-3.390;2023-12-29T10:03:58;101419.13;;;12.39;100.00
23261;BME280;11799;47.740;-3.390;2023-12-29T10:06:25;101433.63;;;12.46;100.00
23261;BME280;11799;47.740;-3.390;2023-12-29T10:08:51;101430.13;;;12.46;100.00
23261;BME280;11799;47.740;-3.390;2023-12-29T10:11:21;101437.44;;;12.42;100.00
23261;BME280;11799;47.740;-3.390;2023-12-29T10:13:50;101435.66;;;12.43;100.00
23261;BME280;11799;47.740;-3.390;2023-12-29T10:21:47;101450.69;;;12.42;100.00
23261;BME280;11799;47.740;-3.390;2023-12-29T10:24:19;101439.38;;;12.40;100.00
23261;BME280;11799;47.740;-3.390;2023-12-29T10:26:46;101443.47;;;12.44;100.00
23261;BME280;11799;47.740;-3.390;2023-12-29T10:29:12;101439.88;;;12.45;100.00
23261;BME280;11799;47.740;-3.390;2023-12-29T10:31:38;101442.28;;;12.48;100.00
23261;BME280;11799;47.740;-3.390;2023-12-29T10:34:23;101439.41;;;12.51;100.00
23261;BME280;11799;47.740;-3.390;2023-12-29T10:36:56;101451.97;;;12.61;100.00
23261;BME280;11799;47.740;-3.390;2023-12-29T10:39:22;101442.47;;;12.69;100.00
23261;BME280;11799;47.740;-3.390;2023-12-29T10:41:48;101439.31;;;12.75;100.00
23261;BME280;11799;47.740;-3.390;2023-12-29T10:44:13;101438.34;;;12.76;100.00
23261;BME280;11799;47.740;-3.390;2023-12-29T10:46:39;101435.69;;;12.76;100.00
23261;BME280;11799;47.740;-3.390;2023-12-29T10:51:34;101438.59;;;12.73;100.00
23261;BME280;11799;47.740;-3.390;2023-12-29T10:54:00;101437.75;;;12.73;100.00
23261;BME280;11799;47.740;-3.390;2023-12-29T10:56:25;101428.84;;;12.74;100.00
23261;BME280;11799;47.740;-3.390;2023-12-29T10:59:02;101425.34;;;12.84;100.00
23261;BME280;11799;47.740;-3.390;2023-12-29T11:01:32;101424.50;;;12.84;100.00
23261;BME280;11799;47.740;-3.390;2023-12-29T11:04:01;101409.91;;;12.78;100.00
23261;BME280;11799;47.740;-3.390;2023-12-29T11:06:28;101418.38;;;12.83;100.00
23261;BME280;11799;47.740;-3.390;2023-12-29T11:08:57;101421.97;;;12.82;100.00
23261;BME280;11799;47.740;-3.390;2023-12-29T11:11:23;101417.41;;;12.84;100.00
23261;BME280;11799;47.740;-3.390;2023-12-29T11:13:49;101414.41;;;12.89;100.00
23261;BME280;11799;47.740;-3.390;2023-12-29T11:16:15;101407.16;;;12.91;100.00
23261;BME280;11799;47.740;-3.390;2023-12-29T11:18:47;101422.84;;;12.94;100.00
23261;BME280;11799;47.740;-3.390;2023-12-29T11:21:14;101422.47;;;12.99;100.00
23261;BME280;11799;47.740;-3.390;2023-12-29T11:23:40;101430.53;;;12.97;100.00
23261;BME280;11799;47.740;-3.390;2023-12-29T11:26:06;101427.91;;;12.97;100.00
23261;BME280;11799;47.740;-3.390;2023-12-29T11:28:32;101421.03;;;12.95;100.00
23261;BME280;11799;47.740;-3.390;2023-12-29T11:30:58;101434.75;;;12.88;100.00
23261;BME280;11799;47.740;-3.390;2023-12-29T11:33:31;101417.16;;;12.87;100.00
23261;BME280;11799;47.740;-3.390;2023-12-29T11:36:10;101410.41;;;12.83;100.00
23261;BME280;11799;47.740;-3.390;2023-12-29T11:39:01;101412.34;;;12.81;100.00
23261;BME280;11799;47.740;-3.390;2023-12-29T11:41:54;101404.75;;;12.77;100.00
23261;BME280;11799;47.740;-3.390;2023-12-29T11:44:25;101412.34;;;12.81;100.00
23261;BME280;11799;47.740;-3.390;2023-12-29T11:46:56;101417.03;;;12.78;100.00
23261;BME280;11799;47.740;-3.390;2023-12-29T11:49:25;101410.16;;;12.75;100.00
23261;BME280;11799;47.740;-3.390;2023-12-29T11:51:50;101414.00;;;12.71;100.00
23261;BME280;11799;47.740;-3.390;2023-12-29T11:54:26;101425.00;;;12.67;100.00
23261;BME280;11799;47.740;-3.390;2023-12-29T11:56:56;101415.25;;;12.67;100.00
23261;BME280;11799;47.740;-3.390;2023-12-29T11:59:25;101390.06;;;12.62;100.00
23261;BME280;11799;47.740;-3.390;2023-12-29T12:01:54;101401.00;;;12.57;100.00
23261;BME280;11799;47.740;-3.390;2023-12-29T12:04:43;101406.03;;;12.49;100.00
23261;BME280;11799;47.740;-3.390;2023-12-29T12:07:16;101413.50;;;12.44;100.00
23261;BME280;11799;47.740;-3.390;2023-12-29T12:09:42;101409.88;;;12.45;100.00
23261;BME280;11799;47.740;-3.390;2023-12-29T12:12:10;101409.88;;;12.45;100.00
23261;BME280;11799;47.740;-3.390;2023-12-29T12:17:11;101397.94;;;12.39;100.00
23261;BME280;11799;47.740;-3.390;2023-12-29T12:19:36;101391.81;;;12.39;100.00
23261;BME280;11799;47.740;-3.390;2023-12-29T12:22:02;101392.88;;;12.36;100.00
23261;BME280;11799;47.740;-3.390;2023-12-29T12:24:29;101387.59;;;12.36;100.00
23261;BME280;11799;47.740;-3.390;2023-12-29T12:26:54;101388.19;;;12.40;100.00
23261;BME280;11799;47.740;-3.390;2023-12-29T12:29:20;101383.25;;;12.35;100.00
23261;BME280;11799;47.740;-3.390;2023-12-29T12:32:04;101381.34;;;12.37;100.00
23261;BME280;11799;47.740;-3.390;2023-12-29T12:34:37;101385.91;;;12.35;100.00
23261;BME280;11799;47.740;-3.390;2023-12-29T12:37:03;101385.78;;;12.37;100.00
23261;BME280;11799;47.740;-3.390;2023-12-29T12:39:39;101376.63;;;12.30;100.00
23261;BME280;11799;47.740;-3.390;2023-12-29T12:42:05;101383.00;;;12.27;100.00